createdAt,value
2024-04-04T00:01:42.170Z,66.97
2024-04-04T00:04:13.448Z,67.16
2024-04-04T00:06:44.677Z,67.05
2024-04-04T00:09:16.789Z,67.12
2024-04-04T00:11:47.992Z,66.71
2024-04-04T00:14:19.176Z,66.39
2024-04-04T00:16:51.590Z,66.48
2024-04-04T00:19:22.733Z,66.42
2024-04-04T00:21:53.917Z,66.14
2024-04-04T00:24:25.054Z,66.80
2024-04-04T00:27:01.878Z,67.14
2024-04-04T00:29:40.270Z,67.35
2024-04-04T00:32:11.715Z,67.22
2024-04-04T00:34:43.171Z,67.12
2024-04-04T00:37:14.397Z,66.62
2024-04-04T00:39:45.539Z,66.75
2024-04-04T00:42:16.607Z,66.81
2024-04-04T00:44:47.771Z,66.76
2024-04-04T00:47:19.338Z,66.74
2024-04-04T00:49:50.904Z,66.77
2024-04-04T00:52:22.061Z,66.81
2024-04-04T00:54:54.924Z,66.83
2024-04-04T00:57:26.122Z,66.88
2024-04-04T00:59:58.793Z,66.59
2024-04-04T01:02:29.827Z,66.95
2024-04-04T01:05:00.995Z,67.23
2024-04-04T01:07:36.124Z,67.82
2024-04-04T01:10:11.262Z,67.46
2024-04-04T01:12:42.497Z,67.30
2024-04-04T01:15:13.648Z,67.34
2024-04-04T01:17:46.423Z,67.25
2024-04-04T01:20:17.549Z,67.44
2024-04-04T01:22:48.586Z,67.13
2024-04-04T01:25:20.266Z,67.04
2024-04-04T01:27:51.310Z,67.26
2024-04-04T01:30:22.482Z,67.35
2024-04-04T01:32:53.642Z,67.47
2024-04-04T01:35:24.798Z,67.77
2024-04-04T01:37:56.283Z,67.88
2024-04-04T01:40:27.492Z,67.58
2024-04-04T01:42:58.622Z,67.50
2024-04-04T01:45:29.733Z,67.30
2024-04-04T01:48:00.977Z,67.32
2024-04-04T01:50:32.018Z,67.22
2024-04-04T01:53:03.178Z,67.81
2024-04-04T01:55:35.002Z,67.54
2024-04-04T01:58:06.316Z,67.46
2024-04-04T02:00:37.461Z,67.32
2024-04-04T02:03:08.790Z,67.42
2024-04-04T02:05:40.091Z,67.46
2024-04-04T02:08:11.707Z,67.56
2024-04-04T02:10:43.945Z,67.60
2024-04-04T02:13:15.145Z,68.10
2024-04-04T02:15:46.286Z,68.20
2024-04-04T02:18:18.286Z,68.31
2024-04-04T02:20:51.372Z,68.49
2024-04-04T02:23:22.459Z,68.65
2024-04-04T02:25:53.559Z,68.41
2024-04-04T02:28:24.749Z,68.24
2024-04-04T02:30:56.200Z,68.09
2024-04-04T02:33:27.134Z,68.16
2024-04-04T02:35:59.354Z,68.16
2024-04-04T02:38:32.409Z,67.93
2024-04-04T02:41:05.553Z,67.78
2024-04-04T02:43:38.136Z,67.83
2024-04-04T02:46:09.889Z,67.83
2024-04-04T02:48:40.943Z,67.92
2024-04-04T02:51:12.681Z,68.25
2024-04-04T02:53:44.018Z,68.40
2024-04-04T02:56:15.107Z,67.70
2024-04-04T02:58:46.943Z,67.74
2024-04-04T03:01:18.015Z,67.95
2024-04-04T03:03:49.417Z,68.05
2024-04-04T03:06:22.268Z,68.20
2024-04-04T03:08:53.796Z,67.82
2024-04-04T03:11:24.935Z,67.98
2024-04-04T03:13:56.232Z,68.04
2024-04-04T03:16:27.408Z,68.30
2024-04-04T03:18:58.462Z,68.39
2024-04-04T03:21:29.977Z,68.60
2024-04-04T03:24:01.038Z,68.36
2024-04-04T03:26:32.176Z,68.46
2024-04-04T03:29:04.350Z,68.16
2024-04-04T03:31:35.408Z,68.08
2024-04-04T03:34:06.457Z,68.22
2024-04-04T03:36:37.688Z,68.32
2024-04-04T03:39:08.867Z,68.14
2024-04-04T03:41:40.009Z,68.08
2024-04-04T03:44:11.202Z,68.21
2024-04-04T03:46:42.210Z,68.49
2024-04-04T03:49:13.420Z,68.32
2024-04-04T03:51:44.547Z,68.63
2024-04-04T03:54:15.744Z,68.95
2024-04-04T03:56:52.718Z,68.98
2024-04-04T03:59:31.319Z,68.82
2024-04-04T04:02:02.474Z,68.68
2024-04-04T04:04:36.081Z,68.70
2024-04-04T04:07:07.446Z,68.69
2024-04-04T04:09:38.663Z,69.17
2024-04-04T04:12:10.213Z,69.50
2024-04-04T04:14:41.604Z,69.60
2024-04-04T04:17:13.221Z,69.23
2024-04-04T04:19:44.408Z,69.13
2024-04-04T04:22:15.775Z,68.96
2024-04-04T04:24:47.043Z,68.54
2024-04-04T04:27:18.342Z,68.40
2024-04-04T04:29:49.406Z,68.35
2024-04-04T04:32:20.779Z,68.50
2024-04-04T04:34:51.971Z,68.78
2024-04-04T04:37:23.088Z,68.63
2024-04-04T04:39:54.147Z,68.47
2024-04-04T04:42:25.429Z,68.92
2024-04-04T04:44:56.642Z,69.03
2024-04-04T04:47:27.799Z,69.25
2024-04-04T04:49:59.037Z,69.44
2024-04-04T04:52:31.627Z,69.41
2024-04-04T04:55:03.541Z,69.57
2024-04-04T04:57:34.910Z,69.54
2024-04-04T05:00:11.120Z,69.69
2024-04-04T05:02:42.578Z,70.03
2024-04-04T05:05:17.985Z,70.43
2024-04-04T05:07:49.552Z,70.70
2024-04-04T05:10:20.769Z,70.88
2024-04-04T05:12:51.992Z,70.69
2024-04-04T05:15:23.184Z,70.46
2024-04-04T05:17:54.435Z,70.34
2024-04-04T05:20:25.871Z,70.50
2024-04-04T05:22:57.122Z,70.45
2024-04-04T05:25:28.507Z,70.61
2024-04-04T05:27:59.875Z,70.53
2024-04-04T05:30:32.547Z,70.52
2024-04-04T05:33:05.506Z,70.92
2024-04-04T05:35:37.253Z,71.18
2024-04-04T05:38:09.906Z,71.27
2024-04-04T05:40:41.071Z,71.23
2024-04-04T05:43:12.365Z,71.57
2024-04-04T05:45:43.839Z,71.32
2024-04-04T05:48:15.059Z,71.32
2024-04-04T05:50:46.318Z,71.12
2024-04-04T05:53:17.752Z,71.07
2024-04-04T05:55:49.684Z,71.02
2024-04-04T05:58:20.771Z,70.92
2024-04-04T06:00:53.250Z,70.99
2024-04-04T06:03:24.974Z,71.27
2024-04-04T06:05:56.317Z,71.43
2024-04-04T06:08:27.877Z,71.33
2024-04-04T06:10:59.242Z,71.29
2024-04-04T06:13:30.499Z,71.35
2024-04-04T06:16:03.618Z,71.50
2024-04-04T06:18:35.047Z,71.89
2024-04-04T06:21:06.848Z,71.90
2024-04-04T06:23:38.868Z,71.91
2024-04-04T06:26:09.884Z,72.03
2024-04-04T06:28:42.384Z,72.69
2024-04-04T06:31:13.831Z,73.04
2024-04-04T06:33:45.137Z,72.93
2024-04-04T06:36:17.416Z,72.80
2024-04-04T06:38:49.091Z,72.66
2024-04-04T06:41:20.357Z,72.67
2024-04-04T06:43:52.353Z,73.03
2024-04-04T06:46:24.859Z,73.07
2024-04-04T06:48:56.352Z,73.47
2024-04-04T06:51:28.080Z,73.38
2024-04-04T06:53:59.571Z,73.40
2024-04-04T06:56:34.159Z,74.09
2024-04-04T06:59:07.236Z,74.39
2024-04-04T07:01:39.964Z,73.97
2024-04-04T07:04:11.657Z,73.88
2024-04-04T07:06:43.423Z,73.74
2024-04-04T07:09:14.782Z,74.14
2024-04-04T07:11:46.505Z,74.13
2024-04-04T07:14:17.783Z,73.59
2024-04-04T07:16:49.189Z,73.05
2024-04-04T07:19:21.074Z,73.28
2024-04-04T07:21:53.534Z,73.59
2024-04-04T07:24:27.283Z,73.91
2024-04-04T07:26:58.631Z,74.16
2024-04-04T07:29:29.889Z,73.27
2024-04-04T07:32:01.461Z,73.11
2024-04-04T07:34:33.335Z,73.35
2024-04-04T07:37:05.598Z,73.29
2024-04-04T07:39:37.995Z,72.76
2024-04-04T07:42:11.338Z,72.30
2024-04-04T07:44:42.578Z,72.06
2024-04-04T07:47:13.817Z,72.04
2024-04-04T07:49:45.266Z,71.64
2024-04-04T07:52:16.922Z,71.27
2024-04-04T07:54:48.474Z,70.88
2024-04-04T07:57:20.058Z,70.92
2024-04-04T07:59:54.596Z,71.22
2024-04-04T08:02:28.087Z,71.16
2024-04-04T08:04:59.955Z,71.45
2024-04-04T08:07:37.295Z,71.53
2024-04-04T08:10:14.553Z,71.67
2024-04-04T08:12:46.182Z,71.88
2024-04-04T08:15:18.954Z,71.63
2024-04-04T08:17:57.306Z,71.68
2024-04-04T08:20:29.355Z,71.97
2024-04-04T08:23:02.519Z,71.62
2024-04-04T08:25:34.442Z,71.80
2024-04-04T08:28:08.405Z,71.81
2024-04-04T08:30:40.024Z,72.24
2024-04-04T08:33:11.463Z,72.46
2024-04-04T08:35:44.191Z,72.55
2024-04-04T08:38:17.722Z,72.49
2024-04-04T08:40:53.107Z,72.15
2024-04-04T08:43:30.557Z,71.69
2024-04-04T08:46:07.855Z,71.91
2024-04-04T08:48:43.555Z,72.34
2024-04-04T08:51:17.035Z,72.29
2024-04-04T08:53:48.765Z,71.82
2024-04-04T08:56:20.966Z,71.92
2024-04-04T08:58:54.510Z,72.12
2024-04-04T09:01:33.995Z,72.47
2024-04-04T09:04:09.421Z,71.97
2024-04-04T09:06:40.847Z,71.34
2024-04-04T09:09:13.026Z,71.11
2024-04-04T09:11:45.605Z,70.83
2024-04-04T09:14:17.741Z,70.04
2024-04-04T09:16:51.762Z,69.43
2024-04-04T09:19:25.213Z,69.02
2024-04-04T09:21:57.765Z,68.37
2024-04-04T09:24:33.896Z,67.80
2024-04-04T09:27:07.876Z,67.49
2024-04-04T09:29:40.747Z,67.34
2024-04-04T09:32:14.469Z,67.35
2024-04-04T09:34:47.179Z,67.01
2024-04-04T09:37:21.685Z,66.77
2024-04-04T09:39:53.379Z,66.99
2024-04-04T09:42:32.130Z,66.77
2024-04-04T09:45:03.439Z,66.81
2024-04-04T09:47:35.509Z,66.85
2024-04-04T09:50:10.562Z,66.46
2024-04-04T09:52:42.424Z,66.16
2024-04-04T09:55:16.296Z,66.12
2024-04-04T09:57:50.412Z,66.38
2024-04-04T10:00:24.260Z,66.33
2024-04-04T10:03:03.559Z,66.10
2024-04-04T10:05:39.512Z,65.94
2024-04-04T10:08:13.444Z,65.63
2024-04-04T10:10:46.827Z,65.85
2024-04-04T10:13:21.742Z,65.98
2024-04-04T10:15:59.157Z,65.44
2024-04-04T10:18:31.170Z,64.71
2024-04-04T10:21:05.328Z,64.39
2024-04-04T10:23:42.255Z,64.41
2024-04-04T10:26:19.088Z,64.27
2024-04-04T10:28:51.280Z,64.10
2024-04-04T10:31:22.874Z,64.37
2024-04-04T10:34:13.411Z,64.55
2024-04-04T10:36:49.758Z,64.45
2024-04-04T10:39:29.521Z,63.86
2024-04-04T10:42:01.767Z,63.38
2024-04-04T10:44:37.813Z,63.74
2024-04-04T10:47:12.681Z,63.35
2024-04-04T10:49:44.301Z,62.77
2024-04-04T10:52:20.852Z,62.89
2024-04-04T10:54:52.382Z,62.71
2024-04-04T10:57:25.002Z,62.26
2024-04-04T10:59:58.578Z,62.47
2024-04-04T11:02:32.390Z,62.33
2024-04-04T11:05:06.041Z,62.26
2024-04-04T11:07:40.192Z,62.53
2024-04-04T11:10:12.111Z,62.34
2024-04-04T11:12:44.291Z,62.12
2024-04-04T11:15:16.942Z,62.23
2024-04-04T11:17:49.422Z,61.97
2024-04-04T11:20:21.150Z,60.48
2024-04-04T11:22:53.656Z,59.65
2024-04-04T11:25:25.780Z,60.37
2024-04-04T11:27:57.399Z,60.52
2024-04-04T11:30:29.049Z,60.19
2024-04-04T11:33:01.059Z,59.73
2024-04-04T11:35:32.155Z,59.37
2024-04-04T11:38:03.634Z,58.91
2024-04-04T11:40:37.051Z,58.54
2024-04-04T11:43:09.119Z,58.43
2024-04-04T11:45:40.471Z,58.47
2024-04-04T11:48:16.211Z,58.73
2024-04-04T11:50:47.759Z,58.60
2024-04-04T11:53:19.191Z,58.69
2024-04-04T11:55:50.455Z,59.01
2024-04-04T11:58:28.795Z,58.83
2024-04-04T12:01:01.659Z,58.73
2024-04-04T12:03:33.412Z,58.48
2024-04-04T12:06:04.975Z,58.49
2024-04-04T12:08:36.485Z,58.39
2024-04-04T12:11:10.833Z,58.54
2024-04-04T12:13:42.265Z,59.00
2024-04-04T12:16:13.713Z,58.55
2024-04-04T12:19:02.322Z,58.35
2024-04-04T12:21:35.963Z,58.51
2024-04-04T12:24:08.633Z,58.28
2024-04-04T12:26:40.385Z,57.86
2024-04-04T12:29:13.012Z,58.13
2024-04-04T12:31:44.150Z,58.50
2024-04-04T12:34:15.492Z,58.61
2024-04-04T12:36:46.674Z,58.55
2024-04-04T12:39:18.727Z,58.68
2024-04-04T12:41:50.184Z,58.42
2024-04-04T12:44:22.376Z,58.37
2024-04-04T12:46:53.497Z,57.13
2024-04-04T12:49:24.700Z,57.26
2024-04-04T12:51:56.328Z,57.12
2024-04-04T12:54:28.275Z,57.29
2024-04-04T12:56:59.707Z,57.31
2024-04-04T12:59:33.197Z,56.93
2024-04-04T13:02:04.684Z,56.63
2024-04-04T13:04:35.815Z,56.15
2024-04-04T13:07:07.379Z,55.58
2024-04-04T13:09:39.563Z,54.59
2024-04-04T13:12:11.515Z,54.91
2024-04-04T13:14:43.090Z,54.96
2024-04-04T13:17:14.910Z,54.53
2024-04-04T13:19:47.176Z,54.09
2024-04-04T13:22:18.548Z,54.13
2024-04-04T13:24:54.130Z,54.12
2024-04-04T13:27:25.922Z,54.10
2024-04-04T13:29:57.095Z,54.00
2024-04-04T13:32:28.458Z,53.74
2024-04-04T13:34:59.995Z,53.68
2024-04-04T13:37:31.789Z,53.83
2024-04-04T13:40:10.461Z,53.93
2024-04-04T13:42:45.385Z,54.23
2024-04-04T13:45:17.996Z,54.04
2024-04-04T13:47:49.876Z,53.75
2024-04-04T13:50:25.531Z,53.94
2024-04-04T13:52:58.440Z,53.78
2024-04-04T13:55:30.525Z,54.01
2024-04-04T13:58:02.365Z,53.70
2024-04-04T14:00:34.674Z,53.79
2024-04-04T14:03:07.109Z,53.84
2024-04-04T14:05:38.591Z,54.13
2024-04-04T14:08:10.401Z,53.97
2024-04-04T14:10:41.599Z,54.03
2024-04-04T14:13:12.925Z,53.70
2024-04-04T14:15:45.225Z,53.24
2024-04-04T14:18:36.152Z,53.12
2024-04-04T14:21:08.965Z,53.11
2024-04-04T14:23:40.440Z,52.72
2024-04-04T14:26:13.792Z,52.96
2024-04-04T14:28:45.083Z,52.97
2024-04-04T14:31:16.752Z,52.92
2024-04-04T14:33:49.100Z,52.71
2024-04-04T14:36:20.452Z,52.64
2024-04-04T14:38:53.642Z,52.68
2024-04-04T14:41:25.913Z,53.00
2024-04-04T14:43:57.436Z,53.04
2024-04-04T14:46:29.157Z,52.67
2024-04-04T14:49:00.632Z,52.80
2024-04-04T14:51:32.063Z,52.64
2024-04-04T14:54:03.600Z,52.65
2024-04-04T14:56:35.179Z,53.14
2024-04-04T14:59:07.380Z,53.43
2024-04-04T15:01:38.613Z,53.45
2024-04-04T15:04:10.712Z,53.37
2024-04-04T15:06:41.919Z,53.29
2024-04-04T15:09:13.473Z,53.16
2024-04-04T15:11:44.862Z,53.04
2024-04-04T15:14:16.787Z,53.00
2024-04-04T15:16:48.103Z,53.24
2024-04-04T15:19:19.742Z,53.59
2024-04-04T15:21:51.089Z,53.34
2024-04-04T15:24:23.329Z,53.06
2024-04-04T15:26:55.300Z,52.77
2024-04-04T15:29:26.965Z,52.77
2024-04-04T15:31:59.898Z,52.85
2024-04-04T15:34:33.196Z,52.93
2024-04-04T15:37:05.631Z,52.93
2024-04-04T15:39:38.439Z,53.40
2024-04-04T15:42:10.519Z,53.46
2024-04-04T15:44:45.640Z,53.46
2024-04-04T15:47:16.941Z,53.45
2024-04-04T15:49:48.646Z,53.64
2024-04-04T15:52:20.145Z,53.58
2024-04-04T15:54:53.693Z,53.47
2024-04-04T15:57:25.360Z,53.72
2024-04-04T15:59:59.211Z,54.20
2024-04-04T16:02:33.010Z,54.19
2024-04-04T16:05:07.183Z,54.20
2024-04-04T16:07:38.354Z,54.19
2024-04-04T16:10:14.282Z,54.34
2024-04-04T16:12:46.357Z,54.59
2024-04-04T16:15:18.249Z,54.83
2024-04-04T16:17:50.339Z,54.80
2024-04-04T16:20:22.180Z,54.81
2024-04-04T16:22:54.441Z,54.70
2024-04-04T16:25:25.896Z,54.94
2024-04-04T16:27:58.810Z,55.18
2024-04-04T16:30:29.899Z,55.30
2024-04-04T16:33:01.564Z,55.59
2024-04-04T16:35:33.032Z,55.58
2024-04-04T16:38:04.814Z,55.71
2024-04-04T16:40:37.044Z,55.72
2024-04-04T16:43:08.659Z,55.81
2024-04-04T16:45:41.168Z,56.02
2024-04-04T16:48:13.173Z,56.44
2024-04-04T16:50:44.598Z,56.36
2024-04-04T16:53:20.310Z,56.55
2024-04-04T16:55:51.620Z,56.20
2024-04-04T16:58:23.134Z,56.23
2024-04-04T17:00:54.565Z,56.58
2024-04-04T17:03:26.250Z,56.41
2024-04-04T17:05:58.583Z,56.62
2024-04-04T17:08:29.948Z,56.96
2024-04-04T17:11:01.415Z,57.36
2024-04-04T17:13:33.148Z,57.63
2024-04-04T17:16:08.811Z,57.91
2024-04-04T17:18:41.323Z,57.82
2024-04-04T17:21:12.739Z,57.89
2024-04-04T17:23:44.057Z,57.67
2024-04-04T17:26:16.688Z,57.85
2024-04-04T17:28:50.407Z,58.00
2024-04-04T17:31:21.619Z,57.91
2024-04-04T17:33:53.228Z,57.96
2024-04-04T17:36:24.515Z,57.96
2024-04-04T17:38:55.809Z,58.08
2024-04-04T17:41:26.978Z,58.16
2024-04-04T17:43:58.556Z,57.99
2024-04-04T17:46:30.066Z,58.06
2024-04-04T17:49:02.026Z,58.08
2024-04-04T17:51:43.480Z,57.92
2024-04-04T17:54:16.308Z,58.13
2024-04-04T17:57:13.391Z,58.16
2024-04-04T17:59:45.060Z,58.15
2024-04-04T18:02:18.466Z,58.36
2024-04-04T18:04:57.256Z,58.78
2024-04-04T18:07:32.045Z,58.84
2024-04-04T18:10:11.355Z,58.75
2024-04-04T18:12:55.906Z,58.73
2024-04-04T18:15:44.704Z,58.72
2024-04-04T18:18:18.310Z,58.85
2024-04-04T18:20:51.236Z,59.19
2024-04-04T18:23:23.977Z,59.25
2024-04-04T18:25:57.783Z,59.63
2024-04-04T18:28:30.072Z,59.84
2024-04-04T18:31:04.234Z,59.98
2024-04-04T18:33:39.328Z,59.69
2024-04-04T18:36:10.788Z,60.08
2024-04-04T18:38:49.235Z,60.20
2024-04-04T18:41:21.709Z,60.21
2024-04-04T18:43:57.450Z,60.26
2024-04-04T18:46:38.391Z,60.57
2024-04-04T18:49:11.946Z,60.82
2024-04-04T18:51:45.599Z,60.99
2024-04-04T18:54:20.470Z,60.78
2024-04-04T18:56:53.251Z,60.66
2024-04-04T18:59:26.258Z,60.69
2024-04-04T19:01:58.740Z,61.09
2024-04-04T19:04:33.335Z,61.10
2024-04-04T19:07:08.339Z,61.39
2024-04-04T19:09:41.342Z,61.11
2024-04-04T19:12:15.964Z,61.45
2024-04-04T19:14:52.451Z,61.53
2024-04-04T19:17:28.438Z,61.85
2024-04-04T19:20:01.591Z,61.74
2024-04-04T19:22:36.699Z,61.62
2024-04-04T19:25:11.120Z,61.77
2024-04-04T19:27:43.376Z,61.69
2024-04-04T19:30:16.180Z,61.76
2024-04-04T19:32:48.526Z,61.91
2024-04-04T19:35:22.267Z,62.31
2024-04-04T19:37:56.308Z,62.39
2024-04-04T19:40:30.687Z,62.81
2024-04-04T19:43:05.042Z,63.09
2024-04-04T19:45:38.013Z,63.25
2024-04-04T19:48:12.930Z,63.56
2024-04-04T19:50:45.710Z,64.02
2024-04-04T19:53:19.080Z,64.16
2024-04-04T19:55:51.324Z,64.74
2024-04-04T19:58:26.440Z,65.53
2024-04-04T20:01:00.070Z,65.75
2024-04-04T20:03:33.838Z,65.95
2024-04-04T20:06:08.226Z,66.41
2024-04-04T20:08:40.252Z,66.58
2024-04-04T20:11:13.051Z,66.96
2024-04-04T20:13:51.042Z,67.40
2024-04-04T20:16:23.413Z,67.41
2024-04-04T20:18:56.142Z,67.50
2024-04-04T20:21:27.833Z,67.87
2024-04-04T20:23:59.739Z,68.21
2024-04-04T20:26:30.966Z,68.28
2024-04-04T20:29:02.881Z,68.63
2024-04-04T20:31:38.251Z,68.71
2024-04-04T20:34:10.527Z,69.65
2024-04-04T20:36:43.303Z,70.48
2024-04-04T20:39:15.858Z,70.61
2024-04-04T20:41:47.996Z,71.27
2024-04-04T20:44:19.960Z,71.40
2024-04-04T20:46:51.497Z,71.54
2024-04-04T20:49:23.635Z,72.06
2024-04-04T20:51:56.312Z,72.56
2024-04-04T20:54:28.008Z,73.23
2024-04-04T20:56:59.372Z,74.43
2024-04-04T20:59:30.674Z,74.41
2024-04-04T21:02:02.107Z,74.34
2024-04-04T21:04:33.359Z,73.99
2024-04-04T21:07:04.786Z,73.47
2024-04-04T21:09:36.080Z,73.88
2024-04-04T21:12:09.001Z,74.32
2024-04-04T21:14:40.672Z,75.04
2024-04-04T21:17:14.195Z,75.12
2024-04-04T21:19:52.212Z,75.72
2024-04-04T21:22:30.578Z,75.93
2024-04-04T21:25:06.482Z,75.82
2024-04-04T21:27:38.016Z,76.33
2024-04-04T21:30:11.226Z,76.59
2024-04-04T21:32:42.526Z,76.68
2024-04-04T21:35:14.622Z,76.73
2024-04-04T21:37:45.861Z,76.69
2024-04-04T21:40:17.190Z,77.49
2024-04-04T21:42:50.817Z,78.05
2024-04-04T21:45:22.766Z,78.30
2024-04-04T21:47:54.492Z,78.04
2024-04-04T21:50:26.040Z,77.39
2024-04-04T21:52:57.356Z,77.00
2024-04-04T21:55:28.492Z,76.94
2024-04-04T21:58:00.601Z,77.74
2024-04-04T22:00:36.850Z,78.61
2024-04-04T22:03:10.476Z,78.42
2024-04-04T22:05:42.210Z,77.98
2024-04-04T22:08:14.153Z,77.91
2024-04-04T22:10:45.821Z,77.97
2024-04-04T22:13:19.018Z,77.46
2024-04-04T22:15:52.546Z,77.19
2024-04-04T22:18:24.989Z,77.16
2024-04-04T22:21:03.246Z,77.21
2024-04-04T22:23:35.273Z,77.14
2024-04-04T22:26:10.309Z,77.23
2024-04-04T22:28:41.551Z,77.03
2024-04-04T22:31:13.311Z,76.65
2024-04-04T22:33:44.499Z,76.93
2024-04-04T22:36:15.693Z,76.56
2024-04-04T22:38:46.941Z,76.99
2024-04-04T22:41:18.099Z,76.92
2024-04-04T22:43:49.321Z,77.14
2024-04-04T22:46:20.333Z,77.00
2024-04-04T22:48:51.892Z,77.17
2024-04-04T22:51:23.316Z,77.52
2024-04-04T22:53:54.556Z,76.84
2024-04-04T22:56:25.729Z,76.98
2024-04-04T22:58:57.217Z,77.16
2024-04-04T23:01:29.708Z,76.28
2024-04-04T23:04:01.131Z,76.45
2024-04-04T23:06:32.719Z,76.31
2024-04-04T23:09:04.462Z,75.80
2024-04-04T23:11:35.827Z,76.20
2024-04-04T23:14:07.088Z,76.22
2024-04-04T23:16:38.569Z,76.25
2024-04-04T23:19:09.755Z,75.87
2024-04-04T23:21:41.158Z,75.75
2024-04-04T23:24:12.460Z,76.09
2024-04-04T23:26:43.694Z,76.20
2024-04-04T23:29:15.085Z,76.31
2024-04-04T23:31:46.287Z,76.11
2024-04-04T23:34:17.502Z,75.89
2024-04-04T23:36:48.751Z,75.93
2024-04-04T23:39:19.800Z,76.35
2024-04-04T23:41:50.956Z,76.21
2024-04-04T23:44:22.204Z,76.25
2024-04-04T23:46:53.232Z,76.71
2024-04-04T23:49:24.314Z,77.17
2024-04-04T23:51:55.366Z,76.15
2024-04-04T23:54:26.540Z,75.86
2024-04-04T23:56:57.692Z,75.52
2024-04-04T23:59:29.176Z,75.70
